sensor_id;sensor_type;location;lat;lon;timestamp;temperature;humidity
23685;DHT22;12020;51.384;6.908;2023-04-21T00:01:16;9.20;99.90
23685;DHT22;12020;51.384;6.908;2023-04-21T00:03:42;9.20;99.90
23685;DHT22;12020;51.384;6.908;2023-04-21T00:06:08;9.10;99.90
23685;DHT22;12020;51.384;6.908;2023-04-21T00:08:34;9.10;99.90
23685;DHT22;12020;51.384;6.908;2023-04-21T00:11:05;9.00;99.90
23685;DHT22;12020;51.384;6.908;2023-04-21T00:13:33;9.10;99.90
23685;DHT22;12020;51.384;6.908;2023-04-21T00:15:59;9.10;99.90
23685;DHT22;12020;51.384;6.908;2023-04-21T00:18:24;9.10;99.90
23685;DHT22;12020;51.384;6.908;2023-04-21T00:20:52;9.10;99.90
23685;DHT22;12020;51.384;6.908;2023-04-21T00:23:18;9.10;99.90
23685;DHT22;12020;51.384;6.908;2023-04-21T00:25:44;9.00;99.90
23685;DHT22;12020;51.384;6.908;2023-04-21T00:28:10;9.00;99.90
23685;DHT22;12020;51.384;6.908;2023-04-21T00:30:36;9.00;99.90
23685;DHT22;12020;51.384;6.908;2023-04-21T00:33:02;9.00;99.90
23685;DHT22;12020;51.384;6.908;2023-04-21T00:35:28;8.90;99.90
23685;DHT22;12020;51.384;6.908;2023-04-21T00:37:54;8.90;99.90
23685;DHT22;12020;51.384;6.908;2023-04-21T00:40:20;8.90;99.90
23685;DHT22;12020;51.384;6.908;2023-04-21T00:42:47;8.80;99.90
23685;DHT22;12020;51.384;6.908;2023-04-21T00:45:13;8.80;99.90
23685;DHT22;12020;51.384;6.908;2023-04-21T00:47:40;8.80;99.90
23685;DHT22;12020;51.384;6.908;2023-04-21T00:50:06;8.80;99.90
23685;DHT22;12020;51.384;6.908;2023-04-21T00:52:33;8.80;99.90
23685;DHT22;12020;51.384;6.908;2023-04-21T00:54:59;8.80;99.90
23685;DHT22;12020;51.384;6.908;2023-04-21T00:57:26;8.80;99.90
23685;DHT22;12020;51.384;6.908;2023-04-21T00:59:53;8.80;99.90
23685;DHT22;12020;51.384;6.908;2023-04-21T01:02:20;8.80;99.90
23685;DHT22;12020;51.384;6.908;2023-04-21T01:04:47;8.80;99.90
23685;DHT22;12020;51.384;6.908;2023-04-21T01:07:12;8.90;99.90
23685;DHT22;12020;51.384;6.908;2023-04-21T01:09:39;8.90;99.90
23685;DHT22;12020;51.384;6.908;2023-04-21T01:12:11;8.90;99.90
23685;DHT22;12020;51.384;6.908;2023-04-21T01:14:39;8.90;99.90
23685;DHT22;12020;51.384;6.908;2023-04-21T01:17:07;9.00;99.90
23685;DHT22;12020;51.384;6.908;2023-04-21T01:19:41;9.00;99.90
23685;DHT22;12020;51.384;6.908;2023-04-21T01:22:08;9.00;99.90
23685;DHT22;12020;51.384;6.908;2023-04-21T01:24:39;9.00;99.90
23685;DHT22;12020;51.384;6.908;2023-04-21T01:27:17;9.00;99.90
23685;DHT22;12020;51.384;6.908;2023-04-21T01:29:44;9.00;99.90
23685;DHT22;12020;51.384;6.908;2023-04-21T01:32:14;9.00;99.90
23685;DHT22;12020;51.384;6.908;2023-04-21T01:34:41;9.00;99.90
23685;DHT22;12020;51.384;6.908;2023-04-21T01:37:08;9.00;99.90
23685;DHT22;12020;51.384;6.908;2023-04-21T01:39:37;9.00;99.90
23685;DHT22;12020;51.384;6.908;2023-04-21T01:42:04;9.00;99.90
23685;DHT22;12020;51.384;6.908;2023-04-21T01:44:30;9.10;99.90
23685;DHT22;12020;51.384;6.908;2023-04-21T01:46:55;9.10;99.90
23685;DHT22;12020;51.384;6.908;2023-04-21T01:49:22;9.10;99.90
23685;DHT22;12020;51.384;6.908;2023-04-21T01:51:48;9.10;99.90
23685;DHT22;12020;51.384;6.908;2023-04-21T01:54:13;9.10;99.90
23685;DHT22;12020;51.384;6.908;2023-04-21T01:56:39;9.10;99.90
23685;DHT22;12020;51.384;6.908;2023-04-21T01:59:05;9.10;99.90
23685;DHT22;12020;51.384;6.908;2023-04-21T02:01:31;9.00;99.90
23685;DHT22;12020;51.384;6.908;2023-04-21T02:03:58;9.00;99.90
23685;DHT22;12020;51.384;6.908;2023-04-21T02:06:24;9.10;99.90
23685;DHT22;12020;51.384;6.908;2023-04-21T02:08:51;9.10;99.90
23685;DHT22;12020;51.384;6.908;2023-04-21T02:11:17;9.10;99.90
23685;DHT22;12020;51.384;6.908;2023-04-21T02:13:42;9.10;99.90
23685;DHT22;12020;51.384;6.908;2023-04-21T02:16:14;9.10;99.90
23685;DHT22;12020;51.384;6.908;2023-04-21T02:18:40;9.10;99.90
23685;DHT22;12020;51.384;6.908;2023-04-21T02:21:07;9.20;99.90
23685;DHT22;12020;51.384;6.908;2023-04-21T02:23:33;9.20;99.90
23685;DHT22;12020;51.384;6.908;2023-04-21T02:25:59;9.20;99.90
23685;DHT22;12020;51.384;6.908;2023-04-21T02:28:26;9.20;99.90
23685;DHT22;12020;51.384;6.908;2023-04-21T02:30:51;9.20;99.90
23685;DHT22;12020;51.384;6.908;2023-04-21T02:33:18;9.20;99.90
23685;DHT22;12020;51.384;6.908;2023-04-21T02:35:44;9.20;99.90
23685;DHT22;12020;51.384;6.908;2023-04-21T02:38:10;9.20;99.90
23685;DHT22;12020;51.384;6.908;2023-04-21T02:40:37;9.20;99.90
23685;DHT22;12020;51.384;6.908;2023-04-21T02:43:03;9.20;99.90
23685;DHT22;12020;51.384;6.908;2023-04-21T02:45:29;9.20;99.90
23685;DHT22;12020;51.384;6.908;2023-04-21T02:47:55;9.20;99.90
23685;DHT22;12020;51.384;6.908;2023-04-21T02:50:21;9.20;99.90
23685;DHT22;12020;51.384;6.908;2023-04-21T02:52:47;9.20;99.90
23685;DHT22;12020;51.384;6.908;2023-04-21T02:55:12;9.20;99.90
23685;DHT22;12020;51.384;6.908;2023-04-21T02:57:38;9.20;99.90
23685;DHT22;12020;51.384;6.908;2023-04-21T03:00:04;9.20;99.90
23685;DHT22;12020;51.384;6.908;2023-04-21T03:02:32;9.20;99.90
23685;DHT22;12020;51.384;6.908;2023-04-21T03:04:58;9.20;99.90
23685;DHT22;12020;51.384;6.908;2023-04-21T03:07:24;9.20;99.90
23685;DHT22;12020;51.384;6.908;2023-04-21T03:09:49;9.20;99.90
23685;DHT22;12020;51.384;6.908;2023-04-21T03:12:16;9.20;99.90
23685;DHT22;12020;51.384;6.908;2023-04-21T03:14:41;9.20;99.90
23685;DHT22;12020;51.384;6.908;2023-04-21T03:17:08;9.20;99.90
23685;DHT22;12020;51.384;6.908;2023-04-21T03:19:33;9.20;99.90
23685;DHT22;12020;51.384;6.908;2023-04-21T03:21:59;9.20;99.90
23685;DHT22;12020;51.384;6.908;2023-04-21T03:24:25;9.20;99.90
23685;DHT22;12020;51.384;6.908;2023-04-21T03:26:52;9.20;99.90
23685;DHT22;12020;51.384;6.908;2023-04-21T03:29:18;9.20;99.90
23685;DHT22;12020;51.384;6.908;2023-04-21T03:31:43;9.10;99.90
23685;DHT22;12020;51.384;6.908;2023-04-21T03:34:10;9.10;99.90
23685;DHT22;12020;51.384;6.908;2023-04-21T03:36:36;9.10;99.90
23685;DHT22;12020;51.384;6.908;2023-04-21T03:39:02;9.10;99.90
23685;DHT22;12020;51.384;6.908;2023-04-21T03:41:29;9.10;99.90
23685;DHT22;12020;51.384;6.908;2023-04-21T03:43:55;9.10;99.90
23685;DHT22;12020;51.384;6.908;2023-04-21T03:46:21;9.10;99.90
23685;DHT22;12020;51.384;6.908;2023-04-21T03:48:47;9.10;99.90
23685;DHT22;12020;51.384;6.908;2023-04-21T03:51:14;9.10;99.90
23685;DHT22;12020;51.384;6.908;2023-04-21T03:53:40;9.10;99.90
23685;DHT22;12020;51.384;6.908;2023-04-21T03:56:07;9.10;99.90
23685;DHT22;12020;51.384;6.908;2023-04-21T03:58:34;9.10;99.90
23685;DHT22;12020;51.384;6.908;2023-04-21T04:01:00;9.00;99.90
23685;DHT22;12020;51.384;6.908;2023-04-21T04:03:26;9.00;99.90
23685;DHT22;12020;51.384;6.908;2023-04-21T04:05:51;9.00;99.90
23685;DHT22;12020;51.384;6.908;2023-04-21T04:08:17;9.00;99.90
23685;DHT22;12020;51.384;6.908;2023-04-21T04:10:43;9.00;99.90
23685;DHT22;12020;51.384;6.908;2023-04-21T04:13:09;9.00;99.90
23685;DHT22;12020;51.384;6.908;2023-04-21T04:15:35;9.00;99.90
23685;DHT22;12020;51.384;6.908;2023-04-21T04:18:01;9.00;99.90
23685;DHT22;12020;51.384;6.908;2023-04-21T04:20:28;9.00;99.90
23685;DHT22;12020;51.384;6.908;2023-04-21T04:22:53;9.00;99.90
23685;DHT22;12020;51.384;6.908;2023-04-21T04:25:19;9.00;99.90
23685;DHT22;12020;51.384;6.908;2023-04-21T04:27:46;9.00;99.90
23685;DHT22;12020;51.384;6.908;2023-04-21T04:30:15;8.90;99.90
23685;DHT22;12020;51.384;6.908;2023-04-21T04:32:41;8.90;99.90
23685;DHT22;12020;51.384;6.908;2023-04-21T04:35:09;8.90;99.90
23685;DHT22;12020;51.384;6.908;2023-04-21T04:37:36;8.90;99.90
23685;DHT22;12020;51.384;6.908;2023-04-21T04:40:03;8.90;99.90
23685;DHT22;12020;51.384;6.908;2023-04-21T04:42:31;8.90;99.90
23685;DHT22;12020;51.384;6.908;2023-04-21T04:44:58;8.90;99.90
23685;DHT22;12020;51.384;6.908;2023-04-21T04:47:26;8.90;99.90
23685;DHT22;12020;51.384;6.908;2023-04-21T04:49:51;8.90;99.90
23685;DHT22;12020;51.384;6.908;2023-04-21T04:52:17;8.90;99.90
23685;DHT22;12020;51.384;6.908;2023-04-21T04:54:43;8.90;99.90
23685;DHT22;12020;51.384;6.908;2023-04-21T04:57:09;8.90;99.90
23685;DHT22;12020;51.384;6.908;2023-04-21T04:59:35;8.90;99.90
23685;DHT22;12020;51.384;6.908;2023-04-21T05:02:01;8.90;99.90
23685;DHT22;12020;51.384;6.908;2023-04-21T05:04:28;8.90;99.90
23685;DHT22;12020;51.384;6.908;2023-04-21T05:06:54;8.90;99.90
23685;DHT22;12020;51.384;6.908;2023-04-21T05:09:19;8.90;99.90
23685;DHT22;12020;51.384;6.908;2023-04-21T05:11:45;8.90;99.90
23685;DHT22;12020;51.384;6.908;2023-04-21T05:14:11;8.90;99.90
23685;DHT22;12020;51.384;6.908;2023-04-21T05:16:37;9.00;99.90
23685;DHT22;12020;51.384;6.908;2023-04-21T05:19:04;9.00;99.90
23685;DHT22;12020;51.384;6.908;2023-04-21T05:21:30;8.90;99.90
23685;DHT22;12020;51.384;6.908;2023-04-21T05:23:58;8.90;99.90
23685;DHT22;12020;51.384;6.908;2023-04-21T05:26:25;8.90;99.90
23685;DHT22;12020;51.384;6.908;2023-04-21T05:28:53;8.90;99.90
23685;DHT22;12020;51.384;6.908;2023-04-21T05:31:19;8.90;99.90
23685;DHT22;12020;51.384;6.908;2023-04-21T05:33:48;8.90;99.90
23685;DHT22;12020;51.384;6.908;2023-04-21T05:36:13;8.90;99.90
23685;DHT22;12020;51.384;6.908;2023-04-21T05:38:40;8.90;99.90
23685;DHT22;12020;51.384;6.908;2023-04-21T05:41:06;8.90;99.90
23685;DHT22;12020;51.384;6.908;2023-04-21T05:43:32;8.90;99.90
23685;DHT22;12020;51.384;6.908;2023-04-21T05:46:02;9.00;99.90
23685;DHT22;12020;51.384;6.908;2023-04-21T05:48:44;9.00;99.90
23685;DHT22;12020;51.384;6.908;2023-04-21T05:51:12;9.00;99.90
23685;DHT22;12020;51.384;6.908;2023-04-21T05:53:38;9.10;99.90
23685;DHT22;12020;51.384;6.908;2023-04-21T05:56:09;9.10;99.90
23685;DHT22;12020;51.384;6.908;2023-04-21T05:58:36;9.10;99.90
23685;DHT22;12020;51.384;6.908;2023-04-21T06:01:02;9.20;99.90
23685;DHT22;12020;51.384;6.908;2023-04-21T06:03:32;9.20;99.90
23685;DHT22;12020;51.384;6.908;2023-04-21T06:05:59;9.30;99.90
23685;DHT22;12020;51.384;6.908;2023-04-21T06:08:26;9.30;99.90
23685;DHT22;12020;51.384;6.908;2023-04-21T06:10:52;9.30;99.90
23685;DHT22;12020;51.384;6.908;2023-04-21T06:13:18;9.40;99.90
23685;DHT22;12020;51.384;6.908;2023-04-21T06:15:44;9.40;99.90
23685;DHT22;12020;51.384;6.908;2023-04-21T06:18:11;9.40;99.90
23685;DHT22;12020;51.384;6.908;2023-04-21T06:20:36;9.50;99.90
23685;DHT22;12020;51.384;6.908;2023-04-21T06:23:02;9.50;99.90
23685;DHT22;12020;51.384;6.908;2023-04-21T06:25:28;9.60;99.90
23685;DHT22;12020;51.384;6.908;2023-04-21T06:27:54;9.60;99.90
23685;DHT22;12020;51.384;6.908;2023-04-21T06:30:22;9.70;99.90
23685;DHT22;12020;51.384;6.908;2023-04-21T06:32:51;9.70;99.90
23685;DHT22;12020;51.384;6.908;2023-04-21T06:35:18;9.70;99.90
23685;DHT22;12020;51.384;6.908;2023-04-21T06:37:44;9.80;99.90
23685;DHT22;12020;51.384;6.908;2023-04-21T06:40:11;9.80;99.90
23685;DHT22;12020;51.384;6.908;2023-04-21T06:42:38;9.90;99.90
23685;DHT22;12020;51.384;6.908;2023-04-21T06:45:04;10.00;99.90
23685;DHT22;12020;51.384;6.908;2023-04-21T06:47:31;10.00;99.90
23685;DHT22;12020;51.384;6.908;2023-04-21T06:49:58;10.10;99.90
23685;DHT22;12020;51.384;6.908;2023-04-21T06:52:24;10.10;99.90
23685;DHT22;12020;51.384;6.908;2023-04-21T06:54:50;10.10;99.90
23685;DHT22;12020;51.384;6.908;2023-04-21T06:57:16;10.10;99.90
23685;DHT22;12020;51.384;6.908;2023-04-21T06:59:43;10.20;99.90
23685;DHT22;12020;51.384;6.908;2023-04-21T07:02:09;10.20;99.90
23685;DHT22;12020;51.384;6.908;2023-04-21T07:04:35;10.20;99.90
23685;DHT22;12020;51.384;6.908;2023-04-21T07:07:02;10.30;99.90
23685;DHT22;12020;51.384;6.908;2023-04-21T07:09:28;10.30;99.90
23685;DHT22;12020;51.384;6.908;2023-04-21T07:11:55;10.40;99.90
23685;DHT22;12020;51.384;6.908;2023-04-21T07:14:23;10.40;99.90
23685;DHT22;12020;51.384;6.908;2023-04-21T07:16:51;10.40;99.90
23685;DHT22;12020;51.384;6.908;2023-04-21T07:19:16;10.50;99.90
23685;DHT22;12020;51.384;6.908;2023-04-21T07:21:42;10.50;99.90
23685;DHT22;12020;51.384;6.908;2023-04-21T07:24:08;10.60;99.90
23685;DHT22;12020;51.384;6.908;2023-04-21T07:26:35;10.60;99.90
23685;DHT22;12020;51.384;6.908;2023-04-21T07:29:01;10.70;99.90
23685;DHT22;12020;51.384;6.908;2023-04-21T07:31:27;10.80;99.90
23685;DHT22;12020;51.384;6.908;2023-04-21T07:33:53;10.80;99.90
23685;DHT22;12020;51.384;6.908;2023-04-21T07:36:20;10.90;99.90
23685;DHT22;12020;51.384;6.908;2023-04-21T07:38:46;10.90;99.90
23685;DHT22;12020;51.384;6.908;2023-04-21T07:41:13;11.00;99.90
23685;DHT22;12020;51.384;6.908;2023-04-21T07:43:39;11.00;99.90
23685;DHT22;12020;51.384;6.908;2023-04-21T07:46:06;11.00;99.90
23685;DHT22;12020;51.384;6.908;2023-04-21T07:48:32;11.10;99.90
23685;DHT22;12020;51.384;6.908;2023-04-21T07:50:58;11.20;99.90
23685;DHT22;12020;51.384;6.908;2023-04-21T07:53:25;11.30;99.90
23685;DHT22;12020;51.384;6.908;2023-04-21T07:55:52;11.30;99.90
23685;DHT22;12020;51.384;6.908;2023-04-21T07:58:20;11.40;99.90
23685;DHT22;12020;51.384;6.908;2023-04-21T08:00:46;11.40;99.90
23685;DHT22;12020;51.384;6.908;2023-04-21T08:03:12;11.40;99.90
23685;DHT22;12020;51.384;6.908;2023-04-21T08:05:38;11.40;99.90
23685;DHT22;12020;51.384;6.908;2023-04-21T08:08:04;11.50;99.90
23685;DHT22;12020;51.384;6.908;2023-04-21T08:10:30;11.50;99.90
23685;DHT22;12020;51.384;6.908;2023-04-21T08:12:56;11.50;99.90
23685;DHT22;12020;51.384;6.908;2023-04-21T08:15:22;11.60;99.90
23685;DHT22;12020;51.384;6.908;2023-04-21T08:17:48;11.60;99.90
23685;DHT22;12020;51.384;6.908;2023-04-21T08:20:14;11.60;99.90
23685;DHT22;12020;51.384;6.908;2023-04-21T08:22:40;11.60;99.90
23685;DHT22;12020;51.384;6.908;2023-04-21T08:25:06;11.60;99.90
23685;DHT22;12020;51.384;6.908;2023-04-21T08:27:36;11.70;99.90
23685;DHT22;12020;51.384;6.908;2023-04-21T08:30:05;11.70;99.90
23685;DHT22;12020;51.384;6.908;2023-04-21T08:32:32;11.80;99.90
23685;DHT22;12020;51.384;6.908;2023-04-21T08:34:57;11.80;99.90
23685;DHT22;12020;51.384;6.908;2023-04-21T08:37:24;11.90;99.90
23685;DHT22;12020;51.384;6.908;2023-04-21T08:39:49;12.00;99.90
23685;DHT22;12020;51.384;6.908;2023-04-21T08:42:19;12.00;99.90
23685;DHT22;12020;51.384;6.908;2023-04-21T08:44:45;12.10;99.90
23685;DHT22;12020;51.384;6.908;2023-04-21T08:47:13;12.20;99.90
23685;DHT22;12020;51.384;6.908;2023-04-21T08:49:40;12.30;99.90
23685;DHT22;12020;51.384;6.908;2023-04-21T08:52:07;12.30;99.90
23685;DHT22;12020;51.384;6.908;2023-04-21T08:54:33;12.30;99.90
23685;DHT22;12020;51.384;6.908;2023-04-21T08:57:03;12.30;99.90
23685;DHT22;12020;51.384;6.908;2023-04-21T08:59:30;12.40;99.90
23685;DHT22;12020;51.384;6.908;2023-04-21T09:02:11;12.40;99.90
23685;DHT22;12020;51.384;6.908;2023-04-21T09:04:41;12.40;99.90
23685;DHT22;12020;51.384;6.908;2023-04-21T09:07:07;12.50;99.90
23685;DHT22;12020;51.384;6.908;2023-04-21T09:09:50;12.50;99.90
23685;DHT22;12020;51.384;6.908;2023-04-21T09:12:16;12.60;99.90
23685;DHT22;12020;51.384;6.908;2023-04-21T09:14:42;12.60;99.90
23685;DHT22;12020;51.384;6.908;2023-04-21T09:17:09;12.60;99.90
23685;DHT22;12020;51.384;6.908;2023-04-21T09:19:35;12.60;99.90
23685;DHT22;12020;51.384;6.908;2023-04-21T09:22:01;12.50;99.90
23685;DHT22;12020;51.384;6.908;2023-04-21T09:24:27;12.50;99.90
23685;DHT22;12020;51.384;6.908;2023-04-21T09:26:53;12.60;99.90
23685;DHT22;12020;51.384;6.908;2023-04-21T09:29:23;12.60;99.90
23685;DHT22;12020;51.384;6.908;2023-04-21T09:31:49;12.60;99.90
23685;DHT22;12020;51.384;6.908;2023-04-21T09:34:21;12.70;99.90
23685;DHT22;12020;51.384;6.908;2023-04-21T09:37:01;12.70;99.90
23685;DHT22;12020;51.384;6.908;2023-04-21T09:39:31;12.80;99.90
23685;DHT22;12020;51.384;6.908;2023-04-21T09:41:57;12.80;99.90
23685;DHT22;12020;51.384;6.908;2023-04-21T09:44:27;12.90;99.90
23685;DHT22;12020;51.384;6.908;2023-04-21T09:46:59;12.90;99.90
23685;DHT22;12020;51.384;6.908;2023-04-21T09:49:29;12.90;99.90
23685;DHT22;12020;51.384;6.908;2023-04-21T09:52:00;12.90;99.90
23685;DHT22;12020;51.384;6.908;2023-04-21T09:54:31;12.90;99.90
23685;DHT22;12020;51.384;6.908;2023-04-21T09:56:59;12.90;99.90
23685;DHT22;12020;51.384;6.908;2023-04-21T09:59:32;12.90;99.90
23685;DHT22;12020;51.384;6.908;2023-04-21T10:01:59;12.90;99.90
23685;DHT22;12020;51.384;6.908;2023-04-21T10:04:27;12.90;99.90
23685;DHT22;12020;51.384;6.908;2023-04-21T10:06:56;12.80;99.90
23685;DHT22;12020;51.384;6.908;2023-04-21T10:09:26;12.80;99.90
23685;DHT22;12020;51.384;6.908;2023-04-21T10:11:55;12.80;99.90
23685;DHT22;12020;51.384;6.908;2023-04-21T10:14:21;12.80;99.90
23685;DHT22;12020;51.384;6.908;2023-04-21T10:17:08;12.70;99.90
23685;DHT22;12020;51.384;6.908;2023-04-21T10:19:36;12.80;99.90
23685;DHT22;12020;51.384;6.908;2023-04-21T10:22:06;12.80;99.90
23685;DHT22;12020;51.384;6.908;2023-04-21T10:24:39;12.80;99.90
23685;DHT22;12020;51.384;6.908;2023-04-21T10:27:09;12.90;99.90
23685;DHT22;12020;51.384;6.908;2023-04-21T10:29:42;13.10;99.90
23685;DHT22;12020;51.384;6.908;2023-04-21T10:32:09;13.20;99.90
23685;DHT22;12020;51.384;6.908;2023-04-21T10:34:37;13.30;99.90
23685;DHT22;12020;51.384;6.908;2023-04-21T10:39:36;13.50;99.90
23685;DHT22;12020;51.384;6.908;2023-04-21T10:45:05;13.60;99.90
23685;DHT22;12020;51.384;6.908;2023-04-21T10:47:40;13.60;99.90
23685;DHT22;12020;51.384;6.908;2023-04-21T10:50:21;13.70;99.90
23685;DHT22;12020;51.384;6.908;2023-04-21T10:52:57;13.70;99.90
23685;DHT22;12020;51.384;6.908;2023-04-21T10:55:27;13.80;99.90
23685;DHT22;12020;51.384;6.908;2023-04-21T10:57:54;13.80;99.90
23685;DHT22;12020;51.384;6.908;2023-04-21T11:00:24;13.80;99.90
23685;DHT22;12020;51.384;6.908;2023-04-21T11:02:58;13.80;99.90
23685;DHT22;12020;51.384;6.908;2023-04-21T11:05:30;13.90;99.90
23685;DHT22;12020;51.384;6.908;2023-04-21T11:08:11;13.90;99.90
23685;DHT22;12020;51.384;6.908;2023-04-21T11:10:46;14.00;99.90
23685;DHT22;12020;51.384;6.908;2023-04-21T11:13:13;14.10;99.90
23685;DHT22;12020;51.384;6.908;2023-04-21T11:15:39;14.20;99.90
23685;DHT22;12020;51.384;6.908;2023-04-21T11:18:05;14.20;99.90
23685;DHT22;12020;51.384;6.908;2023-04-21T11:20:39;14.20;99.90
23685;DHT22;12020;51.384;6.908;2023-04-21T11:23:06;14.20;99.90
23685;DHT22;12020;51.384;6.908;2023-04-21T11:25:32;14.20;99.90
23685;DHT22;12020;51.384;6.908;2023-04-21T11:27:57;14.20;99.90
23685;DHT22;12020;51.384;6.908;2023-04-21T11:30:31;14.30;99.90
23685;DHT22;12020;51.384;6.908;2023-04-21T11:33:00;14.30;99.90
23685;DHT22;12020;51.384;6.908;2023-04-21T11:35:27;14.40;99.90
23685;DHT22;12020;51.384;6.908;2023-04-21T11:37:54;14.50;99.90
23685;DHT22;12020;51.384;6.908;2023-04-21T11:40:20;14.60;99.90
23685;DHT22;12020;51.384;6.908;2023-04-21T11:42:46;14.60;99.90
23685;DHT22;12020;51.384;6.908;2023-04-21T11:45:17;14.60;99.90
23685;DHT22;12020;51.384;6.908;2023-04-21T11:47:44;14.60;99.90
23685;DHT22;12020;51.384;6.908;2023-04-21T11:50:11;14.60;99.90
23685;DHT22;12020;51.384;6.908;2023-04-21T11:52:54;14.70;99.90
23685;DHT22;12020;51.384;6.908;2023-04-21T11:55:19;14.70;99.90
23685;DHT22;12020;51.384;6.908;2023-04-21T11:57:49;14.80;99.90
23685;DHT22;12020;51.384;6.908;2023-04-21T12:00:16;14.90;99.90
23685;DHT22;12020;51.384;6.908;2023-04-21T12:02:42;15.00;99.90
23685;DHT22;12020;51.384;6.908;2023-04-21T12:05:10;15.10;99.90
23685;DHT22;12020;51.384;6.908;2023-04-21T12:07:40;15.20;99.90
23685;DHT22;12020;51.384;6.908;2023-04-21T12:10:10;15.30;99.90
23685;DHT22;12020;51.384;6.908;2023-04-21T12:12:38;15.40;99.90
23685;DHT22;12020;51.384;6.908;2023-04-21T12:15:05;15.50;99.90
23685;DHT22;12020;51.384;6.908;2023-04-21T12:17:41;15.60;99.90
23685;DHT22;12020;51.384;6.908;2023-04-21T12:20:10;15.60;99.90
23685;DHT22;12020;51.384;6.908;2023-04-21T12:22:36;15.70;99.90
23685;DHT22;12020;51.384;6.908;2023-04-21T12:25:03;15.70;99.90
23685;DHT22;12020;51.384;6.908;2023-04-21T12:27:29;15.80;99.90
23685;DHT22;12020;51.384;6.908;2023-04-21T12:29:55;15.90;99.90
23685;DHT22;12020;51.384;6.908;2023-04-21T12:32:21;15.90;99.90
23685;DHT22;12020;51.384;6.908;2023-04-21T12:34:47;16.00;99.90
23685;DHT22;12020;51.384;6.908;2023-04-21T12:37:13;16.10;99.90
23685;DHT22;12020;51.384;6.908;2023-04-21T12:39:40;16.10;99.90
23685;DHT22;12020;51.384;6.908;2023-04-21T12:42:07;16.20;99.90
23685;DHT22;12020;51.384;6.908;2023-04-21T12:44:34;16.20;99.90
23685;DHT22;12020;51.384;6.908;2023-04-21T12:47:00;16.30;99.90
23685;DHT22;12020;51.384;6.908;2023-04-21T12:49:27;16.40;99.90
23685;DHT22;12020;51.384;6.908;2023-04-21T12:51:54;16.40;99.90
23685;DHT22;12020;51.384;6.908;2023-04-21T12:54:20;16.40;99.90
23685;DHT22;12020;51.384;6.908;2023-04-21T12:56:47;16.40;99.90
23685;DHT22;12020;51.384;6.908;2023-04-21T12:59:13;16.40;99.90
23685;DHT22;12020;51.384;6.908;2023-04-21T13:01:40;16.40;99.90
23685;DHT22;12020;51.384;6.908;2023-04-21T13:04:07;16.40;99.90
23685;DHT22;12020;51.384;6.908;2023-04-21T13:06:33;16.40;99.90
23685;DHT22;12020;51.384;6.908;2023-04-21T13:08:59;16.40;99.90
23685;DHT22;12020;51.384;6.908;2023-04-21T13:11:25;16.40;99.90
23685;DHT22;12020;51.384;6.908;2023-04-21T13:13:51;16.50;99.90
23685;DHT22;12020;51.384;6.908;2023-04-21T13:16:17;16.60;99.90
23685;DHT22;12020;51.384;6.908;2023-04-21T13:18:44;16.70;99.90
23685;DHT22;12020;51.384;6.908;2023-04-21T13:21:11;16.70;99.90
23685;DHT22;12020;51.384;6.908;2023-04-21T13:23:37;16.70;99.90
23685;DHT22;12020;51.384;6.908;2023-04-21T13:26:03;16.80;99.90
23685;DHT22;12020;51.384;6.908;2023-04-21T13:28:29;16.80;99.90
23685;DHT22;12020;51.384;6.908;2023-04-21T13:30:54;16.90;99.90
23685;DHT22;12020;51.384;6.908;2023-04-21T13:33:21;16.90;99.90
23685;DHT22;12020;51.384;6.908;2023-04-21T13:35:47;16.90;99.90
23685;DHT22;12020;51.384;6.908;2023-04-21T13:38:13;16.90;99.90
23685;DHT22;12020;51.384;6.908;2023-04-21T13:40:39;16.90;99.90
23685;DHT22;12020;51.384;6.908;2023-04-21T13:43:05;16.90;99.90
23685;DHT22;12020;51.384;6.908;2023-04-21T13:45:31;17.00;99.90
23685;DHT22;12020;51.384;6.908;2023-04-21T13:47:57;17.00;99.90
23685;DHT22;12020;51.384;6.908;2023-04-21T13:50:23;17.10;99.90
23685;DHT22;12020;51.384;6.908;2023-04-21T13:52:58;17.10;99.90
23685;DHT22;12020;51.384;6.908;2023-04-21T13:55:23;17.00;99.90
23685;DHT22;12020;51.384;6.908;2023-04-21T13:57:49;17.00;99.90
23685;DHT22;12020;51.384;6.908;2023-04-21T14:00:15;17.10;99.90
23685;DHT22;12020;51.384;6.908;2023-04-21T14:02:41;17.10;99.90
23685;DHT22;12020;51.384;6.908;2023-04-21T14:05:07;17.10;99.90
23685;DHT22;12020;51.384;6.908;2023-04-21T14:07:34;17.10;99.90
23685;DHT22;12020;51.384;6.908;2023-04-21T14:10:01;17.10;99.90
23685;DHT22;12020;51.384;6.908;2023-04-21T14:12:27;17.10;99.90
23685;DHT22;12020;51.384;6.908;2023-04-21T14:14:53;17.10;99.90
23685;DHT22;12020;51.384;6.908;2023-04-21T14:17:19;17.20;99.90
23685;DHT22;12020;51.384;6.908;2023-04-21T14:19:45;17.20;99.90
23685;DHT22;12020;51.384;6.908;2023-04-21T14:22:11;17.30;99.90
23685;DHT22;12020;51.384;6.908;2023-04-21T14:24:37;17.40;99.90
23685;DHT22;12020;51.384;6.908;2023-04-21T14:27:04;17.50;99.90
23685;DHT22;12020;51.384;6.908;2023-04-21T14:29:30;17.50;99.90
23685;DHT22;12020;51.384;6.908;2023-04-21T14:31:56;17.60;99.90
23685;DHT22;12020;51.384;6.908;2023-04-21T14:34:26;17.60;99.90
23685;DHT22;12020;51.384;6.908;2023-04-21T14:36:52;17.50;99.90
23685;DHT22;12020;51.384;6.908;2023-04-21T14:39:18;17.50;99.90
23685;DHT22;12020;51.384;6.908;2023-04-21T14:41:44;17.50;99.90
23685;DHT22;12020;51.384;6.908;2023-04-21T14:44:11;17.40;99.90
23685;DHT22;12020;51.384;6.908;2023-04-21T14:46:37;17.40;99.90
23685;DHT22;12020;51.384;6.908;2023-04-21T14:49:03;17.60;99.90
23685;DHT22;12020;51.384;6.908;2023-04-21T14:51:30;17.70;99.90
23685;DHT22;12020;51.384;6.908;2023-04-21T14:53:59;17.80;99.90
23685;DHT22;12020;51.384;6.908;2023-04-21T14:56:24;17.90;99.90
23685;DHT22;12020;51.384;6.908;2023-04-21T14:58:51;18.00;99.90
23685;DHT22;12020;51.384;6.908;2023-04-21T15:01:18;18.10;99.90
23685;DHT22;12020;51.384;6.908;2023-04-21T15:03:44;18.10;99.90
23685;DHT22;12020;51.384;6.908;2023-04-21T15:06:10;18.20;99.90
23685;DHT22;12020;51.384;6.908;2023-04-21T15:08:36;18.30;99.90
23685;DHT22;12020;51.384;6.908;2023-04-21T15:11:03;18.40;99.90
23685;DHT22;12020;51.384;6.908;2023-04-21T15:13:29;18.40;99.90
23685;DHT22;12020;51.384;6.908;2023-04-21T15:15:56;18.50;99.90
23685;DHT22;12020;51.384;6.908;2023-04-21T15:18:22;18.40;99.90
23685;DHT22;12020;51.384;6.908;2023-04-21T15:20:48;18.50;99.90
23685;DHT22;12020;51.384;6.908;2023-04-21T15:23:14;18.40;99.90
23685;DHT22;12020;51.384;6.908;2023-04-21T15:25:40;18.40;99.90
23685;DHT22;12020;51.384;6.908;2023-04-21T15:28:06;18.40;99.90
23685;DHT22;12020;51.384;6.908;2023-04-21T15:30:33;18.40;99.90
23685;DHT22;12020;51.384;6.908;2023-04-21T15:32:59;18.40;99.90
23685;DHT22;12020;51.384;6.908;2023-04-21T15:35:25;18.40;99.90
23685;DHT22;12020;51.384;6.908;2023-04-21T15:37:51;18.50;99.90
23685;DHT22;12020;51.384;6.908;2023-04-21T15:40:17;18.40;99.90
23685;DHT22;12020;51.384;6.908;2023-04-21T15:42:44;18.50;99.90